Time;durP1;ratioP1;P1;durP2;ratioP2;P2;SDS_P1;SDS_P2;PMS_P1;PMS_P2;Temp;Humidity;BMP_temperature;BMP_pressure;BME280_temperature;BME280_humidity;BME280_pressure;Samples;Min_cycle;Max_cycle;Signal;HPM_P1;HPM_P2
2023/03/10 00:02:56;;;;;;;;;;;20.50;32.60;;;;;;8332257;28;19921;-45
2023/03/10 00:06:57;;;;;;;;;;;20.50;32.50;;;;;;8332328;28;20016;-46
2023/03/10 00:10:59;;;;;;;;;;;20.40;32.40;;;;;;8331762;28;19913;-45
2023/03/10 00:14:59;;;;;;;;;;;20.40;32.40;;;;;;8331948;28;19972;-44
2023/03/10 00:19:00;;;;;;;;;;;20.40;32.40;;;;;;8331669;28;20363;-46
2023/03/10 00:23:00;;;;;;;;;;;20.40;32.50;;;;;;8330841;28;19932;-45
2023/03/10 00:27:01;;;;;;;;;;;20.40;32.40;;;;;;8331833;28;19924;-45
2023/03/10 00:31:03;;;;;;;;;;;20.40;32.40;;;;;;8331841;28;19920;-48
2023/03/10 00:35:04;;;;;;;;;;;20.30;32.40;;;;;;8330726;28;19917;-49
2023/03/10 00:39:04;;;;;;;;;;;20.40;32.40;;;;;;8331296;28;20583;-46
2023/03/10 00:43:05;;;;;;;;;;;20.30;32.40;;;;;;8330323;28;19925;-45
2023/03/10 00:47:05;;;;;;;;;;;20.30;32.60;;;;;;8330587;28;19949;-45
2023/03/10 00:51:06;;;;;;;;;;;20.30;32.50;;;;;;8331530;28;19913;-45
2023/03/10 00:55:07;;;;;;;;;;;20.30;32.50;;;;;;8330593;28;20345;-45
2023/03/10 00:59:09;;;;;;;;;;;20.30;32.50;;;;;;8313041;28;19924;-45
2023/03/10 01:03:10;;;;;;;;;;;20.30;32.50;;;;;;8330467;28;20382;-45
2023/03/10 01:07:10;;;;;;;;;;;20.20;32.50;;;;;;8330091;28;19913;-47
2023/03/10 01:11:14;;;;;;;;;;;20.20;32.50;;;;;;8331057;28;19920;-46
2023/03/10 01:15:15;;;;;;;;;;;20.20;32.60;;;;;;8330379;28;19928;-46
2023/03/10 01:19:17;;;;;;;;;;;20.20;32.70;;;;;;8329916;28;19917;-46
2023/03/10 01:23:19;;;;;;;;;;;20.20;32.70;;;;;;8330219;28;19969;-45
2023/03/10 01:27:19;;;;;;;;;;;20.20;32.80;;;;;;8330361;28;19958;-46
2023/03/10 01:31:20;;;;;;;;;;;20.10;32.80;;;;;;8329897;28;19924;-48
2023/03/10 01:35:20;;;;;;;;;;;20.20;32.80;;;;;;8330152;28;19917;-46
2023/03/10 01:39:21;;;;;;;;;;;20.10;32.80;;;;;;8330291;28;20310;-45
2023/03/10 01:43:26;;;;;;;;;;;20.10;32.90;;;;;;8329335;28;19928;-45
2023/03/10 01:47:26;;;;;;;;;;;20.10;33.00;;;;;;8329990;28;19982;-45
2023/03/10 01:51:28;;;;;;;;;;;20.10;33.00;;;;;;8330394;28;19913;-47
2023/03/10 01:55:30;;;;;;;;;;;20.10;33.50;;;;;;8336024;28;20063;-45
2023/03/10 01:59:32;;;;;;;;;;;20.10;33.10;;;;;;8336056;28;19918;-46
2023/03/10 02:03:34;;;;;;;;;;;20.00;33.00;;;;;;8336171;28;19925;-45
2023/03/10 02:07:34;;;;;;;;;;;20.10;33.10;;;;;;8335433;28;19917;-47
2023/03/10 02:11:36;;;;;;;;;;;20.00;33.10;;;;;;8334629;28;20260;-45
2023/03/10 02:15:38;;;;;;;;;;;20.00;33.10;;;;;;8336019;28;19917;-46
2023/03/10 02:19:48;;;;;;;;;;;20.10;33.20;;;;;;8334965;28;19917;-46
2023/03/10 02:23:57;;;;;;;;;;;20.00;33.20;;;;;;8335631;28;20386;-46
2023/03/10 02:27:57;;;;;;;;;;;20.00;33.20;;;;;;8335470;28;19921;-46
2023/03/10 02:31:58;;;;;;;;;;;20.00;33.30;;;;;;8334961;28;20367;-46
2023/03/10 02:36:02;;;;;;;;;;;20.00;33.20;;;;;;8335142;28;19924;-46
2023/03/10 02:40:21;;;;;;;;;;;20.00;33.20;;;;;;8335053;28;19918;-47
2023/03/10 02:44:23;;;;;;;;;;;20.00;33.30;;;;;;8334723;28;19997;-46
2023/03/10 02:48:26;;;;;;;;;;;20.00;33.30;;;;;;8334865;28;19956;-46
2023/03/10 02:52:38;;;;;;;;;;;19.90;33.30;;;;;;8334667;28;19952;-46
2023/03/10 02:56:41;;;;;;;;;;;19.90;33.30;;;;;;8334763;28;20393;-47
2023/03/10 03:00:42;;;;;;;;;;;19.90;33.30;;;;;;8334348;28;19917;-47
2023/03/10 03:04:43;;;;;;;;;;;19.90;33.30;;;;;;8332691;28;19948;-49
2023/03/10 03:08:43;;;;;;;;;;;19.90;33.30;;;;;;8334140;28;19921;-47
2023/03/10 03:12:44;;;;;;;;;;;19.90;33.30;;;;;;8334247;28;20290;-47
2023/03/10 03:16:44;;;;;;;;;;;19.90;33.30;;;;;;8333485;28;19917;-47
2023/03/10 03:20:45;;;;;;;;;;;19.90;33.40;;;;;;8333876;28;19925;-47
2023/03/10 03:24:45;;;;;;;;;;;19.90;33.40;;;;;;8333438;28;19925;-46
2023/03/10 03:28:46;;;;;;;;;;;19.90;33.50;;;;;;8333366;28;19917;-47
2023/03/10 03:32:46;;;;;;;;;;;19.80;33.40;;;;;;8333546;28;20004;-47
2023/03/10 03:36:47;;;;;;;;;;;19.80;33.40;;;;;;8333504;28;19964;-50
2023/03/10 03:40:47;;;;;;;;;;;19.80;33.50;;;;;;8332656;28;19924;-47
2023/03/10 03:44:48;;;;;;;;;;;19.80;33.50;;;;;;8333149;28;20020;-49
2023/03/10 03:48:48;;;;;;;;;;;19.80;33.50;;;;;;8332918;28;19996;-46
2023/03/10 03:52:49;;;;;;;;;;;19.80;33.50;;;;;;8332585;28;19913;-47
2023/03/10 03:56:49;;;;;;;;;;;19.80;33.50;;;;;;8332773;28;19967;-47
2023/03/10 04:00:50;;;;;;;;;;;19.80;33.50;;;;;;8332457;28;19925;-46
2023/03/10 04:04:52;;;;;;;;;;;19.80;33.50;;;;;;8331759;28;19925;-47
2023/03/10 04:08:52;;;;;;;;;;;19.80;33.50;;;;;;8332569;28;20347;-47
2023/03/10 04:12:53;;;;;;;;;;;19.80;33.50;;;;;;8332459;28;19917;-47
2023/03/10 04:16:53;;;;;;;;;;;19.70;33.50;;;;;;8331193;28;19917;-46
2023/03/10 04:20:53;;;;;;;;;;;19.70;33.50;;;;;;8331738;28;19917;-49
2023/03/10 04:24:54;;;;;;;;;;;19.70;33.50;;;;;;8331801;28;19990;-46
2023/03/10 04:28:55;;;;;;;;;;;19.70;33.50;;;;;;8331220;28;19917;-47
2023/03/10 04:32:57;;;;;;;;;;;19.70;33.40;;;;;;8331809;28;19919;-49
2023/03/10 04:36:58;;;;;;;;;;;19.70;33.40;;;;;;8331907;28;19945;-47
2023/03/10 04:41:00;;;;;;;;;;;19.70;33.40;;;;;;8330712;28;19971;-47
2023/03/10 04:45:00;;;;;;;;;;;19.70;33.30;;;;;;8330849;28;19936;-47
2023/03/10 04:49:01;;;;;;;;;;;19.80;33.40;;;;;;8331042;28;19917;-47
2023/03/10 04:53:01;;;;;;;;;;;19.80;33.30;;;;;;8330782;28;19913;-47
2023/03/10 04:57:02;;;;;;;;;;;19.80;33.30;;;;;;8330831;28;20389;-47
2023/03/10 05:01:07;;;;;;;;;;;19.80;33.30;;;;;;8329718;28;19921;-47
2023/03/10 05:05:09;;;;;;;;;;;19.80;33.30;;;;;;8330190;28;19932;-46
2023/03/10 05:09:09;;;;;;;;;;;19.80;33.30;;;;;;8330734;28;19917;-49
2023/03/10 05:13:11;;;;;;;;;;;19.80;33.20;;;;;;8330138;28;19967;-47
2023/03/10 05:17:12;;;;;;;;;;;19.90;33.20;;;;;;8330509;28;19918;-46
2023/03/10 05:21:12;;;;;;;;;;;20.00;33.70;;;;;;8330370;28;19917;-46
2023/03/10 05:25:13;;;;;;;;;;;20.10;33.10;;;;;;8329876;28;19953;-47
2023/03/10 05:29:13;;;;;;;;;;;20.20;33.00;;;;;;8329703;28;19932;-47
2023/03/10 05:33:14;;;;;;;;;;;20.30;33.00;;;;;;8330461;28;19936;-46
2023/03/10 05:37:14;;;;;;;;;;;20.30;33.00;;;;;;8329620;28;19917;-47
2023/03/10 05:41:15;;;;;;;;;;;20.40;33.00;;;;;;8329997;28;20333;-47
2023/03/10 05:45:15;;;;;;;;;;;20.50;32.90;;;;;;8329960;28;19935;-47
2023/03/10 05:49:16;;;;;;;;;;;20.50;33.10;;;;;;8329465;28;19917;-46
2023/03/10 05:53:16;;;;;;;;;;;20.50;32.90;;;;;;8330165;28;20479;-47
2023/03/10 05:57:16;;;;;;;;;;;20.60;33.00;;;;;;8329739;28;19917;-46
2023/03/10 06:01:17;;;;;;;;;;;20.70;33.00;;;;;;8329247;28;19991;-45
2023/03/10 06:05:18;;;;;;;;;;;20.70;33.00;;;;;;8329631;28;19925;-47
2023/03/10 06:09:18;;;;;;;;;;;20.70;33.10;;;;;;8329840;28;20007;-46
2023/03/10 06:13:19;;;;;;;;;;;20.70;33.00;;;;;;8329373;28;19913;-46
2023/03/10 06:17:19;;;;;;;;;;;20.70;32.90;;;;;;8329816;28;20390;-45
2023/03/10 06:21:20;;;;;;;;;;;20.70;33.10;;;;;;8329317;28;19928;-46
2023/03/10 06:25:21;;;;;;;;;;;20.70;33.00;;;;;;8328787;28;19934;-46
2023/03/10 06:29:21;;;;;;;;;;;20.70;33.00;;;;;;8329044;28;19920;-45
2023/03/10 06:33:22;;;;;;;;;;;20.60;33.10;;;;;;8329619;28;20370;-47
2023/03/10 06:37:23;;;;;;;;;;;20.60;33.20;;;;;;8328616;28;19959;-46
2023/03/10 06:41:23;;;;;;;;;;;20.60;33.20;;;;;;8333943;28;20338;-46
2023/03/10 06:45:24;;;;;;;;;;;20.60;33.10;;;;;;8334707;28;19926;-45
2023/03/10 06:49:27;;;;;;;;;;;20.60;33.20;;;;;;8334167;28;20048;-46
2023/03/10 06:53:28;;;;;;;;;;;20.50;33.20;;;;;;8334562;28;20337;-47
2023/03/10 06:57:28;;;;;;;;;;;20.50;33.30;;;;;;8334448;28;19924;-45
2023/03/10 07:01:30;;;;;;;;;;;20.50;33.30;;;;;;8333879;28;19940;-46
2023/03/10 07:05:30;;;;;;;;;;;20.50;33.30;;;;;;8334195;28;19925;-46
2023/03/10 07:09:31;;;;;;;;;;;20.50;33.20;;;;;;8334266;28;20016;-46
2023/03/10 07:13:31;;;;;;;;;;;20.50;33.20;;;;;;8333383;28;20420;-46
2023/03/10 07:17:31;;;;;;;;;;;20.60;33.30;;;;;;8334069;28;19917;-47
2023/03/10 07:21:32;;;;;;;;;;;20.70;33.30;;;;;;8333735;28;19913;-47
2023/03/10 07:25:35;;;;;;;;;;;20.70;33.10;;;;;;8332811;28;19925;-46
2023/03/10 07:29:36;;;;;;;;;;;20.80;33.10;;;;;;8333566;28;20317;-46
2023/03/10 07:33:37;;;;;;;;;;;20.80;33.20;;;;;;8333341;28;19944;-45
2023/03/10 07:37:39;;;;;;;;;;;20.90;33.10;;;;;;8332981;28;19921;-46
2023/03/10 07:41:39;;;;;;;;;;;20.90;33.60;;;;;;8333048;28;19917;-47
2023/03/10 07:45:40;;;;;;;;;;;20.90;33.00;;;;;;8332782;28;20008;-47
2023/03/10 07:49:45;;;;;;;;;;;20.90;33.00;;;;;;8332113;28;19924;-46
2023/03/10 07:53:45;;;;;;;;;;;20.90;33.00;;;;;;8332937;28;19924;-49
2023/03/10 07:57:46;;;;;;;;;;;20.90;33.20;;;;;;8332623;28;19917;-46
2023/03/10 08:01:46;;;;;;;;;;;20.90;33.20;;;;;;8332062;28;19944;-47
2023/03/10 08:05:47;;;;;;;;;;;20.90;33.30;;;;;;8325093;28;20298;-47
2023/03/10 08:09:48;;;;;;;;;;;20.90;33.20;;;;;;8332493;28;19923;-46
2023/03/10 08:13:49;;;;;;;;;;;20.80;33.10;;;;;;8331384;28;20283;-45
2023/03/10 08:17:49;;;;;;;;;;;20.80;33.60;;;;;;8331635;28;19917;-46
2023/03/10 08:21:50;;;;;;;;;;;20.80;33.20;;;;;;8331562;28;19971;-46
2023/03/10 08:25:51;;;;;;;;;;;20.80;33.30;;;;;;8330981;28;19925;-46
2023/03/10 08:29:51;;;;;;;;;;;20.80;33.40;;;;;;8331887;28;20363;-46
2023/03/10 08:33:55;;;;;;;;;;;20.80;33.30;;;;;;8360050;28;20000;-49
2023/03/10 08:37:56;;;;;;;;;;;20.70;33.30;;;;;;8340329;28;20287;-47
2023/03/10 08:41:56;;;;;;;;;;;20.70;33.30;;;;;;8331269;28;19914;-47
2023/03/10 08:45:57;;;;;;;;;;;20.70;33.40;;;;;;8313172;28;19925;-47
2023/03/10 08:49:57;;;;;;;;;;;20.70;33.40;;;;;;8330387;28;19959;-48
2023/03/10 08:53:58;;;;;;;;;;;20.70;33.40;;;;;;8331060;28;19917;-45
2023/03/10 08:57:59;;;;;;;;;;;20.70;33.40;;;;;;8330633;28;19917;-46
2023/03/10 09:01:59;;;;;;;;;;;20.60;33.30;;;;;;8329573;28;19928;-47
2023/03/10 09:06:00;;;;;;;;;;;20.70;33.40;;;;;;8312491;28;19925;-47
2023/03/10 09:10:00;;;;;;;;;;;20.60;33.30;;;;;;8330550;28;19928;-45
2023/03/10 09:14:01;;;;;;;;;;;20.60;33.30;;;;;;8329706;28;20436;-47
2023/03/10 09:18:01;;;;;;;;;;;20.60;33.30;;;;;;8330155;28;20013;-48
2023/03/10 09:22:02;;;;;;;;;;;20.60;33.30;;;;;;8330319;28;19913;-45
2023/03/10 09:26:02;;;;;;;;;;;20.60;33.30;;;;;;8329410;28;19947;-48
2023/03/10 09:30:03;;;;;;;;;;;20.50;33.40;;;;;;8330353;28;19968;-47
2023/03/10 09:34:04;;;;;;;;;;;20.50;33.40;;;;;;8329851;28;20270;-47
2023/03/10 09:38:05;;;;;;;;;;;20.50;33.90;;;;;;8329394;28;19918;-46
2023/03/10 09:42:23;;;;;;;;;;;20.50;33.40;;;;;;8329857;28;20003;-45
2023/03/10 09:46:33;;;;;;;;;;;20.50;33.30;;;;;;8328999;28;19929;-46
2023/03/10 09:50:39;;;;;;;;;;;20.50;33.40;;;;;;8329958;28;20312;-47
2023/03/10 09:54:47;;;;;;;;;;;20.50;33.40;;;;;;8329773;28;19971;-46
2023/03/10 09:58:53;;;;;;;;;;;20.50;33.40;;;;;;8328951;28;19917;-47
2023/03/10 10:02:58;;;;;;;;;;;20.40;33.40;;;;;;8329434;28;19927;-49
2023/03/10 10:06:59;;;;;;;;;;;20.40;33.40;;;;;;8329468;28;19944;-49
2023/03/10 10:11:00;;;;;;;;;;;20.40;33.50;;;;;;8328849;28;19917;-45
2023/03/10 10:15:06;;;;;;;;;;;20.40;33.40;;;;;;8333358;28;19921;-48
2023/03/10 10:19:06;;;;;;;;;;;20.40;33.40;;;;;;8335270;28;19917;-47
2023/03/10 10:23:23;;;;;;;;;;;20.40;33.40;;;;;;8335009;28;19960;-49
2023/03/10 10:27:23;;;;;;;;;;;20.40;33.40;;;;;;8335465;28;20270;-46
2023/03/10 10:31:25;;;;;;;;;;;20.40;33.50;;;;;;8334641;28;20016;-47
2023/03/10 10:35:27;;;;;;;;;;;20.40;33.40;;;;;;8335532;28;20294;-48
2023/03/10 10:39:30;;;;;;;;;;;20.40;33.50;;;;;;8334974;28;19951;-47
2023/03/10 10:43:38;;;;;;;;;;;20.40;33.50;;;;;;8334034;28;19921;-46
2023/03/10 10:47:46;;;;;;;;;;;20.30;33.50;;;;;;8334875;28;19925;-46
2023/03/10 10:51:54;;;;;;;;;;;20.30;33.50;;;;;;8334485;28;19913;-46
2023/03/10 10:56:11;;;;;;;;;;;20.30;33.50;;;;;;8334024;28;20007;-45
2023/03/10 11:00:12;;;;;;;;;;;20.30;33.50;;;;;;8334579;28;19921;-46
2023/03/10 11:04:13;;;;;;;;;;;20.30;33.50;;;;;;8329178;28;19926;-47
2023/03/10 11:08:25;;;;;;;;;;;20.30;33.50;;;;;;8318190;28;19940;-46
2023/03/10 11:12:30;;;;;;;;;;;20.30;33.50;;;;;;8333759;28;20000;-46
2023/03/10 11:16:37;;;;;;;;;;;20.30;33.60;;;;;;8333125;28;19924;-45
2023/03/10 11:20:40;;;;;;;;;;;20.20;33.60;;;;;;8333689;28;19921;-49
2023/03/10 11:24:44;;;;;;;;;;;20.30;33.60;;;;;;8332392;28;19929;-49
2023/03/10 11:28:52;;;;;;;;;;;20.30;33.70;;;;;;8314875;28;19949;-46
2023/03/10 11:33:05;;;;;;;;;;;20.30;33.60;;;;;;8333101;28;19921;-48
2023/03/10 11:37:28;;;;;;;;;;;20.30;33.70;;;;;;8333048;28;19971;-46
2023/03/10 11:41:32;;;;;;;;;;;20.20;33.60;;;;;;8333098;28;19913;-50
2023/03/10 11:45:35;;;;;;;;;;;20.20;33.60;;;;;;8332891;28;19932;-45
2023/03/10 11:49:38;;;;;;;;;;;20.20;33.60;;;;;;8331901;28;19918;-46
2023/03/10 11:53:44;;;;;;;;;;;20.20;33.60;;;;;;8332460;28;19946;-46
2023/03/10 11:57:46;;;;;;;;;;;20.20;33.60;;;;;;8332320;28;19917;-45
2023/03/10 12:01:51;;;;;;;;;;;20.20;33.60;;;;;;8331652;28;20305;-46
2023/03/10 12:05:54;;;;;;;;;;;20.20;33.60;;;;;;8332347;28;19987;-45
2023/03/10 12:09:56;;;;;;;;;;;20.20;33.70;;;;;;8331775;28;19952;-49
2023/03/10 12:13:59;;;;;;;;;;;20.20;33.70;;;;;;8331369;28;19924;-46
2023/03/10 12:18:01;;;;;;;;;;;20.20;33.70;;;;;;8331472;28;19940;-47
2023/03/10 12:22:20;;;;;;;;;;;20.20;33.70;;;;;;8331592;28;20267;-46
2023/03/10 12:26:39;;;;;;;;;;;20.20;33.70;;;;;;8331218;28;19925;-46
2023/03/10 12:30:43;;;;;;;;;;;20.10;33.70;;;;;;8330927;28;20271;-47
2023/03/10 12:34:43;;;;;;;;;;;20.10;33.70;;;;;;8330321;28;19917;-47
2023/03/10 12:38:45;;;;;;;;;;;20.20;33.80;;;;;;8331119;28;20341;-46
2023/03/10 12:42:45;;;;;;;;;;;20.10;33.70;;;;;;8331636;28;20343;-46
2023/03/10 12:46:47;;;;;;;;;;;20.10;33.70;;;;;;8331211;28;19949;-47
2023/03/10 12:50:57;;;;;;;;;;;20.10;33.70;;;;;;8330842;28;19917;-46
2023/03/10 12:55:02;;;;;;;;;;;20.10;33.80;;;;;;8330826;28;19924;-47
2023/03/10 12:59:03;;;;;;;;;;;20.10;33.80;;;;;;8330005;28;19921;-46
2023/03/10 13:03:23;;;;;;;;;;;20.10;33.80;;;;;;8330405;28;19972;-47
2023/03/10 13:07:26;;;;;;;;;;;20.10;33.80;;;;;;8329393;28;21294;-48
2023/03/10 13:11:42;;;;;;;;;;;20.10;33.80;;;;;;8330583;28;19921;-47
2023/03/10 13:15:42;;;;;;;;;;;20.10;33.80;;;;;;8330257;28;19921;-47
2023/03/10 13:19:43;;;;;;;;;;;20.10;33.80;;;;;;8329404;28;20337;-48
2023/03/10 13:23:43;;;;;;;;;;;20.10;34.30;;;;;;8329816;28;19921;-46
2023/03/10 13:27:44;;;;;;;;;;;20.10;33.80;;;;;;8329990;28;19921;-47
2023/03/10 13:31:51;;;;;;;;;;;20.10;33.80;;;;;;8329362;28;19917;-46
2023/03/10 13:35:52;;;;;;;;;;;20.10;33.90;;;;;;8330005;28;19917;-46
2023/03/10 13:40:06;;;;;;;;;;;20.10;34.00;;;;;;8329419;28;19917;-46
2023/03/10 13:44:14;;;;;;;;;;;20.10;34.00;;;;;;8329190;28;19925;-46
2023/03/10 13:48:15;;;;;;;;;;;20.10;34.00;;;;;;8331133;28;20362;-46
2023/03/10 13:52:16;;;;;;;;;;;20.10;33.90;;;;;;8336008;28;19928;-46
2023/03/10 13:56:19;;;;;;;;;;;20.00;33.90;;;;;;8336428;28;19914;-46
2023/03/10 14:00:21;;;;;;;;;;;20.10;33.90;;;;;;8336175;28;19917;-45
2023/03/10 14:04:42;;;;;;;;;;;20.10;34.00;;;;;;8335155;28;19925;-46
2023/03/10 14:08:42;;;;;;;;;;;20.00;33.90;;;;;;8334808;28;19917;-46
2023/03/10 14:12:44;;;;;;;;;;;20.00;34.00;;;;;;8335603;28;19929;-46
2023/03/10 14:16:47;;;;;;;;;;;20.00;34.00;;;;;;8322407;28;19925;-45
2023/03/10 14:20:48;;;;;;;;;;;20.00;33.90;;;;;;8330863;28;20016;-47
2023/03/10 14:24:48;;;;;;;;;;;20.00;33.90;;;;;;8325678;28;19932;-44
2023/03/10 14:28:49;;;;;;;;;;;20.00;34.00;;;;;;8326862;28;19939;-47
2023/03/10 14:32:50;;;;;;;;;;;20.00;34.00;;;;;;8329713;28;19952;-45
2023/03/10 14:36:50;;;;;;;;;;;20.00;34.00;;;;;;8331103;28;19928;-47
2023/03/10 14:40:51;;;;;;;;;;;20.00;34.00;;;;;;8328748;28;20402;-46
2023/03/10 14:44:52;;;;;;;;;;;20.00;34.00;;;;;;8324317;28;19925;-46
2023/03/10 14:48:52;;;;;;;;;;;20.00;33.90;;;;;;8309084;28;20453;-46
2023/03/10 14:52:53;;;;;;;;;;;20.00;34.00;;;;;;8331728;28;19917;-46
2023/03/10 14:56:58;;;;;;;;;;;20.00;33.90;;;;;;8326857;28;19917;-48
2023/03/10 15:00:58;;;;;;;;;;;20.00;33.90;;;;;;8321540;28;20326;-45
2023/03/10 15:04:59;;;;;;;;;;;20.00;33.90;;;;;;8311274;28;19925;-46
2023/03/10 15:09:00;;;;;;;;;;;20.00;33.90;;;;;;8298109;28;19944;-46
2023/03/10 15:13:00;;;;;;;;;;;20.00;34.00;;;;;;8323238;28;19917;-48
2023/03/10 15:17:00;;;;;;;;;;;20.00;33.90;;;;;;8331082;28;20012;-46
2023/03/10 15:21:02;;;;;;;;;;;20.00;33.90;;;;;;8327537;28;19929;-47
2023/03/10 15:25:03;;;;;;;;;;;20.00;33.90;;;;;;8323981;28;19925;-49
2023/03/10 15:29:03;;;;;;;;;;;20.00;33.90;;;;;;8322881;28;20008;-47
2023/03/10 15:33:04;;;;;;;;;;;20.00;33.90;;;;;;8328797;28;19917;-48
2023/03/10 15:37:07;;;;;;;;;;;20.00;33.90;;;;;;8328297;28;19917;-46
2023/03/10 15:41:07;;;;;;;;;;;20.00;34.10;;;;;;8331218;28;20071;-46
2023/03/10 15:45:08;;;;;;;;;;;19.90;33.90;;;;;;8322660;28;19945;-46
2023/03/10 15:49:08;;;;;;;;;;;19.90;34.50;;;;;;8319243;28;19921;-46
2023/03/10 15:53:08;;;;;;;;;;;19.90;33.90;;;;;;8316392;28;19964;-47
2023/03/10 15:57:09;;;;;;;;;;;19.90;33.90;;;;;;8317613;28;19917;-47
2023/03/10 16:01:11;;;;;;;;;;;19.90;33.80;;;;;;8322596;28;20024;-48
2023/03/10 16:05:11;;;;;;;;;;;19.90;33.80;;;;;;8308235;28;20402;-46
2023/03/10 16:09:12;;;;;;;;;;;19.90;33.80;;;;;;8318798;28;19932;-47
2023/03/10 16:13:12;;;;;;;;;;;19.90;33.80;;;;;;8328618;28;19921;-45
2023/03/10 16:17:12;;;;;;;;;;;20.00;33.90;;;;;;8317998;28;19917;-46
2023/03/10 16:21:13;;;;;;;;;;;20.10;33.90;;;;;;8326139;28;19924;-48
2023/03/10 16:25:15;;;;;;;;;;;20.20;33.80;;;;;;8316849;28;19925;-46
2023/03/10 16:29:16;;;;;;;;;;;20.30;34.40;;;;;;8328835;28;19928;-47
2023/03/10 16:33:16;;;;;;;;;;;20.40;33.70;;;;;;8319740;28;20377;-47
2023/03/10 16:37:17;;;;;;;;;;;20.50;33.80;;;;;;8329557;28;19939;-45
2023/03/10 16:41:18;;;;;;;;;;;20.50;33.70;;;;;;8326815;28;19928;-47
2023/03/10 16:45:18;;;;;;;;;;;20.50;33.70;;;;;;8326693;28;19932;-47
2023/03/10 16:49:18;;;;;;;;;;;20.60;33.70;;;;;;8313721;28;20366;-48
2023/03/10 16:53:19;;;;;;;;;;;20.60;33.60;;;;;;8325760;28;19924;-49
2023/03/10 16:57:19;;;;;;;;;;;20.70;33.70;;;;;;8311062;28;20375;-48
2023/03/10 17:01:22;;;;;;;;;;;20.70;33.70;;;;;;8317776;28;19921;-46
2023/03/10 17:05:23;;;;;;;;;;;20.70;33.60;;;;;;8325146;28;20275;-48
2023/03/10 17:09:24;;;;;;;;;;;20.80;33.60;;;;;;8319335;28;19921;-49
2023/03/10 17:13:24;;;;;;;;;;;20.70;33.60;;;;;;8322951;28;19940;-48
2023/03/10 17:17:24;;;;;;;;;;;20.70;33.50;;;;;;8321253;28;19924;-47
2023/03/10 17:21:26;;;;;;;;;;;20.70;33.60;;;;;;8314207;28;19917;-47
2023/03/10 17:25:27;;;;;;;;;;;20.70;33.70;;;;;;8324899;28;19925;-46
2023/03/10 17:29:27;;;;;;;;;;;20.70;33.70;;;;;;8324844;28;19921;-47
2023/03/10 17:33:28;;;;;;;;;;;20.60;33.50;;;;;;8305519;28;19963;-45
2023/03/10 17:37:28;;;;;;;;;;;20.60;33.60;;;;;;8309144;28;19918;-47
2023/03/10 17:41:30;;;;;;;;;;;20.60;33.70;;;;;;8313825;28;19918;-45
2023/03/10 17:45:30;;;;;;;;;;;20.60;33.80;;;;;;8316705;28;19925;-47
2023/03/10 17:49:32;;;;;;;;;;;20.50;33.80;;;;;;8326233;28;19948;-47
2023/03/10 17:53:32;;;;;;;;;;;20.50;33.90;;;;;;8328921;28;20390;-46
2023/03/10 17:57:33;;;;;;;;;;;20.50;33.90;;;;;;8329803;28;19917;-50
2023/03/10 18:01:33;;;;;;;;;;;20.60;33.80;;;;;;8329184;28;19921;-47
2023/03/10 18:05:38;;;;;;;;;;;20.60;34.30;;;;;;8329255;28;20375;-46
2023/03/10 18:09:38;;;;;;;;;;;20.60;33.80;;;;;;8329440;28;20267;-48
2023/03/10 18:13:39;;;;;;;;;;;20.70;33.70;;;;;;8329576;28;19921;-46
2023/03/10 18:17:39;;;;;;;;;;;20.70;33.60;;;;;;8329847;28;19917;-49
2023/03/10 18:21:40;;;;;;;;;;;20.80;33.60;;;;;;8329378;28;19917;-47
2023/03/10 18:25:44;;;;;;;;;;;20.80;33.50;;;;;;8328620;28;19925;-48
2023/03/10 18:29:45;;;;;;;;;;;20.80;33.60;;;;;;8329221;28;19917;-48
2023/03/10 18:33:47;;;;;;;;;;;20.90;33.60;;;;;;8330180;28;20008;-48
2023/03/10 18:37:47;;;;;;;;;;;20.90;33.60;;;;;;8334727;28;19917;-51
2023/03/10 18:41:47;;;;;;;;;;;20.90;33.50;;;;;;8335102;28;19923;-48
2023/03/10 18:45:48;;;;;;;;;;;20.80;33.50;;;;;;8316999;28;19928;-47
2023/03/10 18:49:48;;;;;;;;;;;20.90;33.60;;;;;;8334409;28;19950;-46
2023/03/10 18:53:49;;;;;;;;;;;20.80;33.50;;;;;;8334900;28;19988;-46
2023/03/10 18:57:49;;;;;;;;;;;20.80;33.60;;;;;;8334748;28;19923;-46
2023/03/10 19:01:50;;;;;;;;;;;20.80;33.60;;;;;;8334066;28;19922;-47
2023/03/10 19:05:52;;;;;;;;;;;20.80;33.60;;;;;;8334597;28;19925;-47
2023/03/10 19:09:53;;;;;;;;;;;20.70;33.60;;;;;;8334427;28;20328;-46
2023/03/10 19:13:53;;;;;;;;;;;20.70;33.50;;;;;;8333944;28;19913;-47
2023/03/10 19:17:54;;;;;;;;;;;20.70;33.50;;;;;;8334203;28;19917;-47
2023/03/10 19:21:54;;;;;;;;;;;20.60;33.60;;;;;;8334028;28;19913;-46
2023/03/10 19:25:55;;;;;;;;;;;20.70;33.70;;;;;;8333222;28;19925;-48
2023/03/10 19:29:56;;;;;;;;;;;20.70;33.60;;;;;;8333811;28;19913;-50
2023/03/10 19:33:56;;;;;;;;;;;20.70;33.60;;;;;;8333668;28;19917;-47
2023/03/10 19:37:57;;;;;;;;;;;20.70;33.60;;;;;;8332895;28;19918;-46
2023/03/10 19:41:57;;;;;;;;;;;20.70;33.60;;;;;;8333211;28;19917;-46
2023/03/10 19:46:01;;;;;;;;;;;20.80;33.50;;;;;;8332162;28;19922;-47
2023/03/10 19:50:02;;;;;;;;;;;20.80;33.40;;;;;;8332353;28;19925;-47
2023/03/10 19:54:04;;;;;;;;;;;20.90;33.30;;;;;;8333096;28;20340;-47
2023/03/10 19:58:04;;;;;;;;;;;20.90;33.40;;;;;;8332759;28;19917;-47
2023/03/10 20:02:06;;;;;;;;;;;20.90;33.30;;;;;;8332143;28;19925;-49
2023/03/10 20:06:06;;;;;;;;;;;20.90;33.30;;;;;;8332370;28;19928;-47
2023/03/10 20:10:08;;;;;;;;;;;20.90;33.30;;;;;;8313541;28;19924;-47
2023/03/10 20:14:08;;;;;;;;;;;20.90;33.20;;;;;;8314629;28;19917;-48
2023/03/10 20:18:09;;;;;;;;;;;20.90;33.20;;;;;;8332086;28;20003;-47
2023/03/10 20:22:10;;;;;;;;;;;20.90;33.20;;;;;;8332058;28;19913;-47
2023/03/10 20:26:10;;;;;;;;;;;20.90;33.20;;;;;;8331133;28;19932;-46
2023/03/10 20:30:14;;;;;;;;;;;20.80;33.10;;;;;;8331771;28;20379;-47
2023/03/10 20:34:16;;;;;;;;;;;20.80;33.10;;;;;;8331308;28;19917;-48
2023/03/10 20:38:17;;;;;;;;;;;20.80;33.00;;;;;;8331361;28;19917;-47
2023/03/10 20:42:17;;;;;;;;;;;20.80;33.10;;;;;;8331249;28;19939;-45
2023/03/10 20:46:18;;;;;;;;;;;20.80;33.00;;;;;;8330625;28;20297;-47
2023/03/10 20:50:18;;;;;;;;;;;20.70;33.00;;;;;;8330936;28;19924;-47
2023/03/10 20:54:19;;;;;;;;;;;20.70;33.00;;;;;;8331303;28;19917;-47
2023/03/10 20:58:19;;;;;;;;;;;20.70;33.10;;;;;;8329618;28;19921;-49
2023/03/10 21:02:20;;;;;;;;;;;20.60;33.10;;;;;;8330645;28;19922;-47
2023/03/10 21:06:22;;;;;;;;;;;20.70;33.20;;;;;;8330522;28;19921;-47
2023/03/10 21:10:24;;;;;;;;;;;20.70;33.30;;;;;;8330169;28;19925;-47
2023/03/10 21:14:25;;;;;;;;;;;20.70;33.10;;;;;;8330829;28;19928;-47
2023/03/10 21:18:25;;;;;;;;;;;20.80;33.10;;;;;;8330338;28;19917;-47
2023/03/10 21:22:29;;;;;;;;;;;20.90;33.00;;;;;;8329943;28;20000;-48
2023/03/10 21:26:29;;;;;;;;;;;20.80;33.00;;;;;;8330102;28;19926;-47
2023/03/10 21:30:32;;;;;;;;;;;20.90;32.90;;;;;;8330254;28;19971;-48
2023/03/10 21:34:33;;;;;;;;;;;20.90;32.80;;;;;;8329683;28;20014;-48
2023/03/10 21:38:35;;;;;;;;;;;20.90;32.70;;;;;;8330254;28;19949;-46
2023/03/10 21:42:35;;;;;;;;;;;20.90;32.70;;;;;;8330164;28;19913;-49
2023/03/10 21:46:36;;;;;;;;;;;20.90;32.70;;;;;;8329344;28;20048;-46
2023/03/10 21:50:37;;;;;;;;;;;20.90;32.70;;;;;;8329754;28;19914;-47
2023/03/10 21:54:37;;;;;;;;;;;20.90;32.70;;;;;;8312303;28;19952;-47
2023/03/10 21:58:38;;;;;;;;;;;20.80;32.60;;;;;;8329361;28;20299;-46
2023/03/10 22:02:38;;;;;;;;;;;20.80;32.60;;;;;;8329664;28;19921;-44
2023/03/10 22:06:39;;;;;;;;;;;20.80;32.60;;;;;;8329315;28;20016;-46
2023/03/10 22:10:39;;;;;;;;;;;20.80;32.60;;;;;;8332546;28;19917;-44
2023/03/10 22:14:40;;;;;;;;;;;20.70;32.60;;;;;;8336372;28;19971;-46
2023/03/10 22:18:40;;;;;;;;;;;20.70;32.60;;;;;;8335609;28;19917;-46
2023/03/10 22:22:41;;;;;;;;;;;20.60;32.50;;;;;;8335268;28;20416;-44
2023/03/10 22:26:41;;;;;;;;;;;20.60;32.70;;;;;;8335353;28;20012;-47
2023/03/10 22:30:42;;;;;;;;;;;20.60;32.70;;;;;;8335761;28;19917;-47
2023/03/10 22:34:42;;;;;;;;;;;20.50;32.70;;;;;;8334994;28;19921;-47
2023/03/10 22:38:43;;;;;;;;;;;20.50;32.70;;;;;;8335432;28;19921;-46
2023/03/10 22:42:44;;;;;;;;;;;20.50;32.70;;;;;;8335152;28;20325;-46
2023/03/10 22:46:45;;;;;;;;;;;20.40;32.80;;;;;;8334426;28;19932;-48
2023/03/10 22:50:45;;;;;;;;;;;20.40;32.90;;;;;;8335028;28;19924;-46
2023/03/10 22:54:46;;;;;;;;;;;20.40;32.80;;;;;;8334841;28;20065;-48
2023/03/10 22:58:46;;;;;;;;;;;20.30;32.80;;;;;;8334207;28;19923;-47
2023/03/10 23:02:47;;;;;;;;;;;20.30;32.80;;;;;;8333005;28;19921;-46
2023/03/10 23:06:48;;;;;;;;;;;20.30;32.80;;;;;;8334399;28;19968;-45
2023/03/10 23:10:49;;;;;;;;;;;20.20;32.80;;;;;;8333890;28;20394;-46
2023/03/10 23:14:49;;;;;;;;;;;20.20;32.80;;;;;;8334295;28;19968;-46
2023/03/10 23:18:50;;;;;;;;;;;20.20;32.70;;;;;;8333907;28;19924;-46
2023/03/10 23:22:50;;;;;;;;;;;20.20;32.70;;;;;;8332336;28;19917;-47
2023/03/10 23:26:50;;;;;;;;;;;20.20;32.70;;;;;;8333537;28;19921;-46